Data for 05/20/2007

Time Sea-Level Adjusted Pressure Absolute Pressure Temperature Relative Humidity Dew Point   
(mb) (inHg) (mb) (inHg) (C) (F) (%) (C) (F)
00:05 1016 30 845 24.95 13.2 55.7 55 4.4 40
00:10 1016 30 845 24.95 13.1 55.5 55 4.3 39.8
00:15 1016 30 845 24.95 13 55.5 56 4.5 40.2
00:20 1016 30 845 24.95 12.9 55.1 57 4.5 40.1
00:25 1016 30 845 24.95 12.8 55 56 4.4 39.9
00:30 1016 30 845 24.95 12.7 54.8 57 4.4 39.9
00:35 1016 30 845 24.95 12.5 54.5 57 4.2 39.6
00:40 1016 30 845 24.95 12.5 54.5 56 4.1 39.4
00:45 1016 30 845 24.95 12.4 54.4 58 4.4 39.9
00:50 1016 30 845 24.95 12.1 53.9 58 4.1 39.4
00:55 1016 30 845 24.95 12.2 54 57 4 39.2
01:00 1016 30 845 24.95 12.1 53.8 58 4.2 39.6
01:05 1016 30 845 24.95 12.1 53.9 58 4.2 39.5
01:10 1016 30 845 24.95 12.2 53.9 57 3.9 39
01:15 1016 30 845 24.95 12.2 53.9 59 4.4 39.8
01:20 1016 30 845 24.95 11.4 52.6 62 4.4 40
01:25 1016 30 845 24.95 11.2 52.2 62 4.2 39.5
01:30 1016 30 845 24.95 11.3 52.3 61 4 39.3
01:35 1016 30 845 24.95 11.3 52.4 61 4.2 39.6
01:40 1016 30 845 24.95 11.3 52.4 61 4.1 39.4
01:45 1016 30 845 24.95 11.4 52.4 60 3.8 38.9
01:50 1016 30 845 24.95 11.5 52.8 59 3.9 39.1
01:55 1016 30 845 24.95 11.6 52.9 58 3.8 38.8
02:00 1016 30 846 24.98 11.7 53 59 3.9 39
02:05 1016 30 846 24.98 11.6 52.8 59 3.8 38.9
02:10 1016 30 846 24.98 11.4 52.6 60 3.9 39.1
02:15 1016 30 846 24.98 11.3 52.3 60 3.9 39
02:20 1016 30 846 24.98 11.1 52 61 3.9 38.9
02:25 1016 30 845 24.95 11.1 51.9 60 3.7 38.7
02:30 1016 30 845 24.95 10.9 51.5 61 3.7 38.7
02:35 1016 30 845 24.95 10.9 51.6 61 3.7 38.7
02:40 1016 30 845 24.95 11 51.8 61 3.8 38.8
02:45 1016 30 845 24.95 10.6 51.1 63 3.9 39
02:50 1016 30 845 24.95 10.5 50.8 64 4 39.2
02:55 1016 30 845 24.95 10.1 50.1 65 3.9 39.1
03:00 1016 30 845 24.95 10 50 65 3.8 38.8
03:05 1016 30 845 24.95 10.2 50.4 64 3.8 38.9
03:10 1016 30 845 24.95 10.2 50.3 64 3.8 38.8
03:15 1016 30 845 24.95 10.4 50.6 63 3.7 38.7
03:20 1016 30 845 24.95 10.4 50.7 64 4 39.1
03:25 1016 30 845 24.95 10.3 50.5 65 4 39.1
03:30 1016 30 845 24.95 10.1 50.2 66 4 39.2
03:35 1016 30 845 24.95 10 49.9 66 3.9 39
03:40 1016 30 845 24.95 10.1 50.2 65 3.9 39
03:45 1016 30 845 24.95 10.1 50.1 65 3.9 39.1
03:50 1016 30 845 24.95 9.9 49.9 66 3.9 39
03:55 1016 30 845 24.95 9.8 49.7 66 3.9 39
04:00 1016 30 845 24.95 9.7 49.4 67 3.8 38.9
04:05 1016 30 845 24.95 9.6 49.3 67 3.9 39
04:10 1016 30 845 24.95 9.4 49 69 4.1 39.4
04:15 1016 30 845 24.95 9.1 48.4 71 4.1 39.3
04:20 1016 30 845 24.95 8.9 48 71 4 39.2
04:25 1016 30 845 24.95 8.8 47.8 71 3.9 39
04:30 1016 30 845 24.95 9 48.2 69 3.6 38.5
04:35 1016 30 845 24.95 9.2 48.5 71 4.2 39.5
04:40 1016 30 845 24.95 8.7 47.6 72 3.9 39.1
04:45 1016 30 845 24.95 8.7 47.6 71 3.7 38.7
04:50 1016 30 845 24.95 8.9 48 71 3.9 38.9
04:55 1016 30 845 24.95 8.7 47.6 72 3.9 39.1
05:00 1016 30 845 24.95 8.4 47.1 73 3.9 39
05:05 1016 30 845 24.95 8 46.4 75 3.8 38.9
05:10 1016 30 845 24.95 7.9 46.2 75 3.7 38.7
05:15 1016 30 845 24.95 7.9 46.2 74 3.6 38.6
05:20 1016 30 845 24.95 8.2 46.8 73 3.6 38.4
05:25 1016 30 845 24.95 8.2 46.7 74 3.8 38.8
05:30 1016 30 845 24.95 8.2 46.7 73 3.6 38.4
05:35 1016 30 845 24.95 8.3 46.9 72 3.6 38.5
05:40 1016 30 845 24.95 8.4 47.2 71 3.6 38.4
05:45 1016 30 845 24.95 8.5 47.2 71 3.5 38.3
05:50 1016 30 845 24.95 8.3 47 73 3.7 38.7
05:55 1016 30 845 24.95 8 46.4 73 3.5 38.4
06:00 1016 30 845 24.95 8.1 46.6 72 3.5 38.2
06:05 1016 30 845 24.95 8 46.4 73 3.6 38.4
06:10 1016 30 845 24.95 7.8 46.1 74 3.6 38.4
06:15 1016 30 845 24.95 7.6 45.6 76 3.6 38.4
06:20 1016 30 845 24.95 7.4 45.3 76 3.5 38.3
06:25 1016 30 845 24.95 7.4 45.3 76 3.5 38.2
06:30 1016 30 845 24.95 7.3 45.1 77 3.5 38.2
06:35 1016 30 845 24.95 7.4 45.3 76 3.5 38.3
06:40 1016 30 845 24.95 7.5 45.4 76 3.5 38.3
06:45 1016 30 845 24.95 7.5 45.6 75 3.5 38.3
06:50 1016 30 845 24.95 7.6 45.7 74 3.4 38
06:55 1016 30 845 24.95 8.1 46.6 72 3.4 38.1
07:00 1016 30 845 24.95 8.7 47.6 70 3.6 38.4
07:05 1016 30 845 24.95 9.1 48.4 69 3.8 38.8
07:10 1016 30 845 24.95 9.6 49.2 68 4 39.2
07:15 1016 30 845 24.95 9.7 49.4 68 4 39.2
07:20 1016 30 845 24.95 9.6 49.3 68 4 39.3
07:25 1016 30 845 24.95 9.6 49.2 67 3.8 38.9
07:30 1016 30 845 24.95 9.9 49.8 67 4.1 39.4
07:35 1016 30 845 24.95 9.8 49.6 68 4.2 39.5
07:40 1016 30 845 24.95 10.2 50.4 65 4.1 39.4
07:45 1016 30 845 24.95 10.7 51.3 64 4.2 39.5
07:50 1016 30 845 24.95 11 51.9 64 4.5 40.2
07:55 1016 30 845 24.95 11.3 52.3 61 4 39.2
08:00 1016 30 845 24.95 11.9 53.5 58 4.1 39.4
08:05 1016 30 845 24.95 12.3 54.1 58 4.2 39.6
08:10 1016 30 845 24.95 12.6 54.7 54 3.7 38.7
08:15 1016 30 845 24.95 13 55.4 54 4 39.1
08:20 1016 30 845 24.95 13.3 55.9 53 4 39.2
08:25 1016 30 845 24.95 13.2 55.7 53 4 39.2
08:30 1016 30 845 24.95 13.1 55.6 54 3.9 39.1
08:35 1016 30 845 24.95 13.3 56 53 4 39.2
08:40 1016 30 845 24.95 13.8 56.9 52 4.2 39.5
08:45 1016 30 845 24.95 13.8 56.9 52 4.3 39.7
08:50 1016 30 845 24.95 13.7 56.7 51 3.9 39.1
08:55 1015 29.97 845 24.95 13.9 57 50 3.7 38.6
09:00 1015 29.97 845 24.95 14 57.1 49 3.5 38.2
09:05 1015 29.97 844 24.92 14.6 58.2 48 3.8 38.9
09:10 1015 29.97 844 24.92 14.6 58.3 50 4.4 39.8
09:15 1015 29.97 844 24.92 14.3 57.8 50 4.2 39.5
09:20 1015 29.97 844 24.92 14.3 57.8 50 4 39.2
09:25 1015 29.97 844 24.92 14.6 58.3 49 4 39.2
09:30 1015 29.97 844 24.92 15 58.9 47 4 39.2
09:35 1015 29.97 844 24.92 15.1 59.2 49 4.5 40.1
09:40 1015 29.97 844 24.92 14.5 58.1 51 4.6 40.2
09:45 1015 29.97 844 24.92 14.5 58.1 48 3.8 38.8
09:50 1015 29.97 844 24.92 15.2 59.4 49 4.8 40.6
09:55 1015 29.97 844 24.92 15.5 59.8 46 4.1 39.4
10:00 1015 29.97 844 24.92 16.6 61.9 44 4.3 39.7
10:05 1015 29.97 844 24.92 16.2 61.2 47 5.1 41.2
10:10 1015 29.97 844 24.92 16.5 61.6 46 5.1 41.1
10:15 1015 29.97 844 24.92 16.1 61 48 5.2 41.4
10:20 1015 29.97 844 24.92 16.5 61.6 46 4.9 40.8
10:25 1015 29.97 844 24.92 16.2 61.1 47 5.1 41.1
10:30 1015 29.97 844 24.92 16.2 61.1 47 4.9 40.8
10:35 1015 29.97 844 24.92 16.3 61.3 47 5.1 41.1
10:40 1015 29.97 844 24.92 16.7 62 44 4.3 39.8
10:45 1015 29.97 844 24.92 17.1 62.7 44 4.8 40.6
10:50 1015 29.97 844 24.92 17.1 62.7 43 4.5 40.2
10:55 1015 29.97 844 24.92 18.1 64.5 43 5.4 41.7
11:00 1014 29.94 844 24.92 18.4 65.2 42 5.5 41.9
11:05 1014 29.94 844 24.92 18.1 64.5 43 5.6 42
11:10 1014 29.94 844 24.92 18.4 65 42 5.3 41.6
11:15 1014 29.94 844 24.92 18.2 64.7 43 5.5 41.9
11:20 1014 29.94 844 24.92 18.2 64.7 43 5.6 42
11:25 1014 29.94 843 24.89 18.2 64.7 42 5.3 41.6
11:30 1014 29.94 843 24.89 18.5 65.2 41 5.3 41.5
11:35 1014 29.94 843 24.89 18.5 65.3 41 5.1 41.1
11:40 1014 29.94 843 24.89 18.3 65 43 5.8 42.4
11:45 1014 29.94 843 24.89 18.2 64.8 42 5.3 41.6
11:50 1014 29.94 843 24.89 18.9 66.1 40 5.2 41.4
11:55 1014 29.94 843 24.89 19.4 67 40 5.6 42.2
12:00 1014 29.94 843 24.89 18.8 65.8 42 5.7 42.2
12:05 1014 29.94 843 24.89 18.8 65.9 43 6.1 43
12:10 1014 29.94 843 24.89 19.4 66.8 39 5.4 41.6
12:15 1014 29.94 843 24.89 19 66.2 42 6.1 43
12:20 1013 29.91 843 24.89 18.4 65.1 42 5.4 41.8
12:25 1013 29.91 842 24.86 19 66.2 39 4.7 40.4
12:30 1013 29.91 842 24.86 19 66.3 39 4.8 40.7
12:35 1013 29.91 842 24.86 18.5 65.2 41 5.1 41.1
12:40 1013 29.91 842 24.86 18.1 64.6 39 4.2 39.6
12:45 1012 29.88 842 24.86 18.3 65 37 3.5 38.4
12:50 1012 29.88 841 24.83 18.7 65.6 35 3.2 37.8
12:55 1012 29.88 841 24.83 19.2 66.5 36 3.8 38.9
13:00 1012 29.88 841 24.83 18.7 65.7 38 4.3 39.7
13:05 1012 29.88 841 24.83 19 66.1 36 3.8 38.8
13:10 1012 29.88 841 24.83 19.6 67.4 34 3.6 38.5
13:15 1012 29.88 841 24.83 19.1 66.3 39 4.8 40.7
13:20 1012 29.88 841 24.83 19.5 67 36 4.3 39.7
13:25 1012 29.88 841 24.83 19.9 67.9 35 4 39.1
13:30 1011 29.85 841 24.83 19.7 67.5 39 5.5 41.9
13:35 1011 29.85 840 24.81 18.6 65.4 41 5.2 41.4
13:40 1011 29.85 840 24.81 19.4 66.8 38 4.8 40.6
13:45 1011 29.85 840 24.81 19.3 66.8 39 5.2 41.4
13:50 1011 29.85 840 24.81 19.5 67.1 38 4.8 40.6
13:55 1011 29.85 840 24.81 20.1 68.2 38 5.6 42.1
14:00 1011 29.85 840 24.81 20.4 68.6 38 5.6 42.1
14:05 1011 29.85 840 24.81 19.7 67.4 39 5.4 41.8
14:10 1011 29.85 840 24.81 19 66.2 41 5.6 42.1
14:15 1011 29.85 840 24.81 18.7 65.6 41 5.4 41.7
14:20 1011 29.85 840 24.81 18.6 65.6 41 5.2 41.4
14:25 1010 29.83 840 24.81 18.3 65 42 5.3 41.6
14:30 1011 29.85 840 24.81 18.1 64.6 43 5.5 41.9
14:35 1011 29.85 840 24.81 18.1 64.5 43 5.6 42
14:40 1010 29.83 840 24.81 17.3 63.2 46 5.7 42.3
14:45 1010 29.83 840 24.81 17.2 63 47 5.9 42.6
14:50 1010 29.83 839 24.78 17.1 62.7 46 5.5 41.8
14:55 1010 29.83 839 24.78 17.4 63.2 44 5.2 41.3
15:00 1010 29.83 839 24.78 17.6 63.8 43 5 41
15:05 1010 29.83 839 24.78 18 64.3 42 5 41
15:10 1010 29.83 839 24.78 18.1 64.5 42 5.2 41.3
15:15 1009 29.8 839 24.78 17.8 64 45 5.9 42.7
15:20 1009 29.8 839 24.78 18.4 65.1 48 7.3 45.1
15:25 1009 29.8 838 24.75 18.3 64.9 50 7.7 45.9
15:30 1009 29.8 838 24.75 18.2 64.8 51 8 46.4
15:35 1009 29.8 838 24.75 18.1 64.5 50 7.5 45.5
15:40 1009 29.8 838 24.75 18.3 64.9 51 8 46.4
15:45 1009 29.8 838 24.75 18.4 65.1 51 8.1 46.7
15:50 1009 29.8 838 24.75 18.4 65 51 8.2 46.8
15:55 1009 29.8 838 24.75 18.3 65 51 8.2 46.7
16:00 1009 29.8 838 24.75 18.4 65.2 50 8 46.4
16:05 1009 29.8 838 24.75 18.4 65.1 49 7.6 45.7
16:10 1009 29.8 838 24.75 18.5 65.3 50 7.9 46.2
16:15 1009 29.8 838 24.75 18.8 65.8 49 8 46.4
16:20 1009 29.8 838 24.75 18.9 66 51 8.6 47.4
16:25 1009 29.8 838 24.75 18.8 65.9 49 8 46.5
16:30 1009 29.8 838 24.75 18.7 65.7 50 8.1 46.6
16:35 1009 29.8 838 24.75 18.5 65.2 43 5.6 42.2
16:40 1009 29.8 838 24.75 17.7 63.8 42 4.7 40.5
16:45 1009 29.8 838 24.75 17.3 63.2 43 4.7 40.5
16:50 1009 29.8 838 24.75 16.8 62.3 51 6.8 44.2
16:55 1009 29.8 838 24.75 15.6 60.1 58 7.5 45.4
17:00 1010 29.83 840 24.81 14.8 58.6 64 8.1 46.6
17:05 1010 29.83 839 24.78 13.3 55.9 76 9.1 48.4
17:10 1010 29.83 839 24.78 12.3 54.1 80 8.9 48
17:15 1010 29.83 839 24.78 12.2 54 76 8.1 46.6
17:20 1010 29.83 839 24.78 12.6 54.8 77 8.8 47.8
17:25 1010 29.83 839 24.78 13 55.4 76 8.9 47.9
17:30 1010 29.83 839 24.78 13.1 55.5 76 9 48.1
17:35 1010 29.83 839 24.78 13.1 55.6 76 8.9 48.1
17:40 1010 29.83 839 24.78 13.1 55.6 73 8.5 47.3
17:45 1010 29.83 839 24.78 12.9 55.2 75 8.7 47.6
17:50 1010 29.83 839 24.78 13 55.4 73 8.3 46.9
17:55 1010 29.83 839 24.78 13.5 56.3 72 8.5 47.4
18:00 1010 29.83 839 24.78 13.8 56.8 71 8.6 47.5
18:05 1010 29.83 839 24.78 13.8 56.8 67 7.9 46.2
18:10 1010 29.83 839 24.78 13.4 56.2 72 8.5 47.3
18:15 1010 29.83 839 24.78 13.2 55.8 69 7.8 46
18:20 1010 29.83 839 24.78 13.3 56 72 8.4 47.1
18:25 1009 29.8 839 24.78 13.2 55.8 72 8.3 47
18:30 1009 29.8 839 24.78 12.5 54.5 73 7.9 46.2
18:35 1009 29.8 838 24.75 12.5 54.5 74 8.1 46.5
18:40 1009 29.8 838 24.75 12.7 54.8 73 8 46.5
18:45 1009 29.8 838 24.75 12.5 54.5 73 7.9 46.3
18:50 1009 29.8 838 24.75 12.4 54.3 74 7.8 46.1
18:55 1009 29.8 838 24.75 12.5 54.6 71 7.5 45.5
19:00 1009 29.8 838 24.75 12.7 54.8 72 7.8 46
19:05 1009 29.8 838 24.75 12.8 55 69 7.4 45.3
19:10 1009 29.8 838 24.75 13 55.4 71 8 46.4
19:15 1009 29.8 838 24.75 13.1 55.6 71 8 46.5
19:20 1009 29.8 838 24.75 13.2 55.7 71 8 46.4
19:25 1009 29.8 838 24.75 13.2 55.8 71 8.1 46.6
19:30 1009 29.8 838 24.75 13.3 55.9 70 8 46.4
19:35 1009 29.8 838 24.75 12.9 55.3 73 8.3 47
19:40 1009 29.8 838 24.75 12.9 55.2 73 8.3 46.9
19:45 1009 29.8 838 24.75 12.8 55 74 8.3 46.9
19:50 1009 29.8 838 24.75 12.8 55 75 8.6 47.4
19:55 1009 29.8 838 24.75 12.7 54.9 74 8.3 46.9
20:00 1009 29.8 838 24.75 12.6 54.7 74 8.1 46.5
20:05 1009 29.8 838 24.75 12.5 54.5 75 8.2 46.7
20:10 1009 29.8 838 24.75 12.7 54.8 74 8.2 46.7
20:15 1009 29.8 838 24.75 12.6 54.7 73 8 46.5
20:20 1009 29.8 838 24.75 12.7 54.8 73 8.1 46.5
20:25 1009 29.8 838 24.75 12.7 54.9 72 7.9 46.2
20:30 1009 29.8 838 24.75 12.8 55 72 7.9 46.3
20:35 1009 29.8 838 24.75 12.8 55 71 7.8 46
20:40 1009 29.8 838 24.75 12.7 54.8 73 7.9 46.3
20:45 1009 29.8 838 24.75 12.5 54.6 75 8.3 46.9
20:50 1009 29.8 838 24.75 12.3 54.1 77 8.5 47.2
20:55 1009 29.8 838 24.75 12.1 53.8 76 8.1 46.5
21:00 1009 29.8 838 24.75 12 53.6 79 8.5 47.4
21:05 1009 29.8 838 24.75 11.8 53.3 78 8.2 46.8
21:10 1009 29.8 838 24.75 11.8 53.3 77 8 46.4
21:15 1009 29.8 838 24.75 11.9 53.3 78 8.1 46.6
21:20 1009 29.8 838 24.75 11.8 53.2 78 8 46.5
21:25 1009 29.8 838 24.75 11.7 53.1 79 8.2 46.7
21:30 1009 29.8 838 24.75 11.6 52.9 80 8.3 46.9
21:35 1009 29.8 838 24.75 11.6 52.9 80 8.3 47
21:40 1009 29.8 838 24.75 11.8 53.2 79 8.2 46.8
21:45 1009 29.8 838 24.75 12.1 53.7 80 8.8 47.8
21:50 1009 29.8 838 24.75 11.9 53.4 83 9.1 48.3
21:55 1009 29.8 838 24.75 11.6 52.9 85 9.2 48.5
22:00 1009 29.8 838 24.75 11.6 52.8 84 9.1 48.3
22:05 1009 29.8 838 24.75 11.6 52.9 84 9 48.1
22:10 1009 29.8 838 24.75 11.5 52.6 84 8.9 47.9
22:15 1009 29.8 838 24.75 11.5 52.7 83 8.8 47.8
22:20 1009 29.8 838 24.75 11.6 52.8 82 8.6 47.5
22:25 1009 29.8 838 24.75 11.6 52.9 82 8.6 47.5
22:30 1009 29.8 839 24.78 11.5 52.8 81 8.4 47.1
22:35 1009 29.8 839 24.78 11.4 52.4 79 7.9 46.3
22:40 1009 29.8 839 24.78 11.1 52 78 7.4 45.3
22:45 1009 29.8 839 24.78 11 51.7 77 7.1 44.7
22:50 1009 29.8 839 24.78 10.8 51.5 77 7 44.6
22:55 1010 29.83 839 24.78 10.8 51.4 77 7 44.5
23:00 1009 29.8 839 24.78 10.7 51.3 77 6.8 44.3
23:05 1009 29.8 839 24.78 10.8 51.4 77 7 44.5
23:10 1009 29.8 839 24.78 10.9 51.5 77 7 44.5
23:15 1009 29.8 839 24.78 10.8 51.4 77 6.9 44.4
23:20 1009 29.8 838 24.75 10.8 51.4 77 7 44.6
23:25 1009 29.8 838 24.75 10.8 51.4 78 7 44.6
23:30 1009 29.8 838 24.75 10.7 51.2 79 7.2 44.9
23:35 1009 29.8 838 24.75 10.6 51 80 7.2 44.9
23:40 1009 29.8 838 24.75 10.2 50.4 82 7.3 45.2
23:45 1009 29.8 838 24.75 9.9 49.8 84 7.4 45.3
23:50 1009 29.8 838 24.75 9.8 49.6 86 7.5 45.4
23:55 1009 29.8 838 24.75 9.7 49.4 87 7.6 45.7
24:00 1009 29.8 838 24.75 9.4 48.9 89 7.6 45.7